sensor_id;sensor_type;location;lat;lon;timestamp;temperature;humidity
17170;DHT22;8700;48.222;16.342;2023-05-10T00:03:07;13.50;99.90
17170;DHT22;8700;48.222;16.342;2023-05-10T00:06:29;13.60;99.90
17170;DHT22;8700;48.222;16.342;2023-05-10T00:09:51;13.60;99.90
17170;DHT22;8700;48.222;16.342;2023-05-10T00:13:13;13.60;99.90
17170;DHT22;8700;48.222;16.342;2023-05-10T00:16:34;13.50;99.90
17170;DHT22;8700;48.222;16.342;2023-05-10T00:19:57;13.20;99.90
17170;DHT22;8700;48.222;16.342;2023-05-10T00:23:18;13.10;99.90
17170;DHT22;8700;48.222;16.342;2023-05-10T00:26:39;13.20;99.90
17170;DHT22;8700;48.222;16.342;2023-05-10T00:30:02;13.30;99.90
17170;DHT22;8700;48.222;16.342;2023-05-10T00:33:23;13.20;99.90
17170;DHT22;8700;48.222;16.342;2023-05-10T00:36:46;13.20;99.90
17170;DHT22;8700;48.222;16.342;2023-05-10T00:40:08;13.20;99.90
17170;DHT22;8700;48.222;16.342;2023-05-10T00:43:29;13.40;99.90
17170;DHT22;8700;48.222;16.342;2023-05-10T00:46:51;13.40;99.90
17170;DHT22;8700;48.222;16.342;2023-05-10T00:50:12;13.10;99.90
17170;DHT22;8700;48.222;16.342;2023-05-10T00:53:35;13.20;99.90
17170;DHT22;8700;48.222;16.342;2023-05-10T00:56:57;13.00;99.90
17170;DHT22;8700;48.222;16.342;2023-05-10T01:00:19;13.00;99.90
17170;DHT22;8700;48.222;16.342;2023-05-10T01:03:41;13.00;99.90
17170;DHT22;8700;48.222;16.342;2023-05-10T01:07:02;13.10;99.90
17170;DHT22;8700;48.222;16.342;2023-05-10T01:10:25;13.10;99.90
17170;DHT22;8700;48.222;16.342;2023-05-10T01:13:52;12.80;99.90
17170;DHT22;8700;48.222;16.342;2023-05-10T01:17:15;12.80;99.90
17170;DHT22;8700;48.222;16.342;2023-05-10T01:20:41;12.70;99.90
17170;DHT22;8700;48.222;16.342;2023-05-10T01:24:34;12.80;99.90
17170;DHT22;8700;48.222;16.342;2023-05-10T01:28:19;12.70;99.90
17170;DHT22;8700;48.222;16.342;2023-05-10T01:35:51;12.80;99.90
17170;DHT22;8700;48.222;16.342;2023-05-10T01:39:19;12.70;99.90
17170;DHT22;8700;48.222;16.342;2023-05-10T01:42:47;12.80;99.90
17170;DHT22;8700;48.222;16.342;2023-05-10T01:46:16;12.60;99.90
17170;DHT22;8700;48.222;16.342;2023-05-10T01:49:43;12.80;99.90
17170;DHT22;8700;48.222;16.342;2023-05-10T01:53:09;12.80;99.90
17170;DHT22;8700;48.222;16.342;2023-05-10T01:56:32;12.80;99.90
17170;DHT22;8700;48.222;16.342;2023-05-10T01:59:55;12.70;99.90
17170;DHT22;8700;48.222;16.342;2023-05-10T02:03:21;12.60;99.90
17170;DHT22;8700;48.222;16.342;2023-05-10T02:06:47;12.60;99.90
17170;DHT22;8700;48.222;16.342;2023-05-10T02:10:10;12.50;99.90
17170;DHT22;8700;48.222;16.342;2023-05-10T02:13:32;12.50;99.90
17170;DHT22;8700;48.222;16.342;2023-05-10T02:16:55;12.20;99.90
17170;DHT22;8700;48.222;16.342;2023-05-10T02:20:19;12.30;99.90
17170;DHT22;8700;48.222;16.342;2023-05-10T02:23:43;12.20;99.90
17170;DHT22;8700;48.222;16.342;2023-05-10T02:27:05;12.20;99.90
17170;DHT22;8700;48.222;16.342;2023-05-10T02:30:27;12.10;99.90
17170;DHT22;8700;48.222;16.342;2023-05-10T02:33:50;12.10;99.90
17170;DHT22;8700;48.222;16.342;2023-05-10T02:37:13;12.00;99.90
17170;DHT22;8700;48.222;16.342;2023-05-10T02:40:38;12.00;99.90
17170;DHT22;8700;48.222;16.342;2023-05-10T02:44:06;12.10;99.90
17170;DHT22;8700;48.222;16.342;2023-05-10T02:47:29;12.20;99.90
17170;DHT22;8700;48.222;16.342;2023-05-10T02:50:52;12.20;99.90
17170;DHT22;8700;48.222;16.342;2023-05-10T02:54:19;12.20;99.90
17170;DHT22;8700;48.222;16.342;2023-05-10T02:57:46;12.30;99.90
17170;DHT22;8700;48.222;16.342;2023-05-10T03:01:09;12.40;99.90
17170;DHT22;8700;48.222;16.342;2023-05-10T03:04:30;12.10;99.90
17170;DHT22;8700;48.222;16.342;2023-05-10T03:07:52;12.00;99.90
17170;DHT22;8700;48.222;16.342;2023-05-10T03:11:32;12.00;99.90
17170;DHT22;8700;48.222;16.342;2023-05-10T03:15:02;12.00;99.90
17170;DHT22;8700;48.222;16.342;2023-05-10T03:18:29;12.00;99.90
17170;DHT22;8700;48.222;16.342;2023-05-10T03:21:56;12.10;99.90
17170;DHT22;8700;48.222;16.342;2023-05-10T03:25:21;12.00;99.90
17170;DHT22;8700;48.222;16.342;2023-05-10T03:28:43;12.00;99.90
17170;DHT22;8700;48.222;16.342;2023-05-10T03:32:08;11.90;99.90
17170;DHT22;8700;48.222;16.342;2023-05-10T03:35:30;11.80;99.90
17170;DHT22;8700;48.222;16.342;2023-05-10T03:38:51;11.80;99.90
17170;DHT22;8700;48.222;16.342;2023-05-10T03:42:12;11.60;99.90
17170;DHT22;8700;48.222;16.342;2023-05-10T03:45:33;11.40;99.90
17170;DHT22;8700;48.222;16.342;2023-05-10T03:48:58;11.50;99.90
17170;DHT22;8700;48.222;16.342;2023-05-10T03:52:20;11.50;99.90
17170;DHT22;8700;48.222;16.342;2023-05-10T03:55:41;11.30;99.90
17170;DHT22;8700;48.222;16.342;2023-05-10T03:59:02;11.40;99.90
17170;DHT22;8700;48.222;16.342;2023-05-10T04:02:27;11.20;99.90
17170;DHT22;8700;48.222;16.342;2023-05-10T04:05:58;11.30;99.90
17170;DHT22;8700;48.222;16.342;2023-05-10T04:09:20;11.50;99.90
17170;DHT22;8700;48.222;16.342;2023-05-10T04:12:41;11.60;99.90
17170;DHT22;8700;48.222;16.342;2023-05-10T04:16:03;11.60;99.90
17170;DHT22;8700;48.222;16.342;2023-05-10T04:19:28;11.60;99.90
17170;DHT22;8700;48.222;16.342;2023-05-10T04:22:51;11.70;99.90
17170;DHT22;8700;48.222;16.342;2023-05-10T04:26:15;11.60;99.90
17170;DHT22;8700;48.222;16.342;2023-05-10T04:29:36;11.60;99.90
17170;DHT22;8700;48.222;16.342;2023-05-10T04:32:58;11.60;99.90
17170;DHT22;8700;48.222;16.342;2023-05-10T04:36:19;11.60;99.90
17170;DHT22;8700;48.222;16.342;2023-05-10T04:39:42;11.60;99.90
17170;DHT22;8700;48.222;16.342;2023-05-10T04:43:03;11.50;99.90
17170;DHT22;8700;48.222;16.342;2023-05-10T04:46:24;11.60;99.90
17170;DHT22;8700;48.222;16.342;2023-05-10T04:49:46;11.80;99.90
17170;DHT22;8700;48.222;16.342;2023-05-10T04:53:07;11.90;99.90
17170;DHT22;8700;48.222;16.342;2023-05-10T04:56:30;12.00;99.90
17170;DHT22;8700;48.222;16.342;2023-05-10T04:59:51;12.10;99.90
17170;DHT22;8700;48.222;16.342;2023-05-10T05:03:13;12.30;99.90
17170;DHT22;8700;48.222;16.342;2023-05-10T05:06:34;12.50;99.90
17170;DHT22;8700;48.222;16.342;2023-05-10T05:09:56;12.50;99.90
17170;DHT22;8700;48.222;16.342;2023-05-10T05:13:19;12.70;99.90
17170;DHT22;8700;48.222;16.342;2023-05-10T05:16:41;12.80;99.90
17170;DHT22;8700;48.222;16.342;2023-05-10T05:20:03;12.70;99.90
17170;DHT22;8700;48.222;16.342;2023-05-10T05:23:24;12.80;99.90
17170;DHT22;8700;48.222;16.342;2023-05-10T05:26:46;12.90;99.90
17170;DHT22;8700;48.222;16.342;2023-05-10T05:30:11;12.70;99.90
17170;DHT22;8700;48.222;16.342;2023-05-10T05:33:32;13.00;99.90
17170;DHT22;8700;48.222;16.342;2023-05-10T05:36:53;13.30;99.90
17170;DHT22;8700;48.222;16.342;2023-05-10T05:40:17;13.40;99.90
17170;DHT22;8700;48.222;16.342;2023-05-10T05:43:38;13.60;99.90
17170;DHT22;8700;48.222;16.342;2023-05-10T05:47:01;13.80;99.90
17170;DHT22;8700;48.222;16.342;2023-05-10T05:50:23;13.90;99.90
17170;DHT22;8700;48.222;16.342;2023-05-10T05:53:45;14.00;99.90
17170;DHT22;8700;48.222;16.342;2023-05-10T05:57:06;14.20;99.90
17170;DHT22;8700;48.222;16.342;2023-05-10T06:00:28;14.30;99.90
17170;DHT22;8700;48.222;16.342;2023-05-10T06:03:51;14.50;99.90
17170;DHT22;8700;48.222;16.342;2023-05-10T06:07:12;14.60;99.90
17170;DHT22;8700;48.222;16.342;2023-05-10T06:10:33;14.80;99.90
17170;DHT22;8700;48.222;16.342;2023-05-10T06:13:55;14.90;99.90
17170;DHT22;8700;48.222;16.342;2023-05-10T06:17:16;15.10;99.90
17170;DHT22;8700;48.222;16.342;2023-05-10T06:20:41;15.30;99.90
17170;DHT22;8700;48.222;16.342;2023-05-10T06:24:03;15.50;99.90
17170;DHT22;8700;48.222;16.342;2023-05-10T06:27:25;15.30;99.90
17170;DHT22;8700;48.222;16.342;2023-05-10T06:30:46;15.30;99.90
17170;DHT22;8700;48.222;16.342;2023-05-10T06:34:08;15.40;99.90
17170;DHT22;8700;48.222;16.342;2023-05-10T06:37:32;15.50;99.90
17170;DHT22;8700;48.222;16.342;2023-05-10T06:40:54;15.80;99.90
17170;DHT22;8700;48.222;16.342;2023-05-10T06:44:16;15.90;99.90
17170;DHT22;8700;48.222;16.342;2023-05-10T06:47:37;16.00;99.90
17170;DHT22;8700;48.222;16.342;2023-05-10T06:51:01;15.90;99.90
17170;DHT22;8700;48.222;16.342;2023-05-10T06:54:24;16.00;99.90
17170;DHT22;8700;48.222;16.342;2023-05-10T06:57:46;16.10;99.90
17170;DHT22;8700;48.222;16.342;2023-05-10T07:01:07;16.20;99.90
17170;DHT22;8700;48.222;16.342;2023-05-10T07:04:28;16.10;99.90
17170;DHT22;8700;48.222;16.342;2023-05-10T07:07:52;16.10;99.90
17170;DHT22;8700;48.222;16.342;2023-05-10T07:11:15;16.40;99.90
17170;DHT22;8700;48.222;16.342;2023-05-10T07:14:37;16.50;99.90
17170;DHT22;8700;48.222;16.342;2023-05-10T07:17:58;16.70;99.90
17170;DHT22;8700;48.222;16.342;2023-05-10T07:21:20;16.80;99.90
17170;DHT22;8700;48.222;16.342;2023-05-10T07:24:44;17.00;99.90
17170;DHT22;8700;48.222;16.342;2023-05-10T07:28:07;17.20;99.90
17170;DHT22;8700;48.222;16.342;2023-05-10T07:31:28;17.00;99.90
17170;DHT22;8700;48.222;16.342;2023-05-10T07:34:49;17.00;99.90
17170;DHT22;8700;48.222;16.342;2023-05-10T07:38:10;17.20;99.90
17170;DHT22;8700;48.222;16.342;2023-05-10T07:41:32;17.00;99.90
17170;DHT22;8700;48.222;16.342;2023-05-10T07:44:55;17.00;99.90
17170;DHT22;8700;48.222;16.342;2023-05-10T07:48:17;17.60;99.90
17170;DHT22;8700;48.222;16.342;2023-05-10T07:51:38;18.00;99.90
17170;DHT22;8700;48.222;16.342;2023-05-10T07:54:59;19.30;99.90
17170;DHT22;8700;48.222;16.342;2023-05-10T07:58:21;20.00;99.90
17170;DHT22;8700;48.222;16.342;2023-05-10T08:01:44;22.10;99.80
17170;DHT22;8700;48.222;16.342;2023-05-10T08:05:06;22.30;94.30
17170;DHT22;8700;48.222;16.342;2023-05-10T08:08:28;21.40;95.50
17170;DHT22;8700;48.222;16.342;2023-05-10T08:11:49;21.40;95.20
17170;DHT22;8700;48.222;16.342;2023-05-10T08:15:11;22.30;95.10
17170;DHT22;8700;48.222;16.342;2023-05-10T08:18:34;22.80;94.10
17170;DHT22;8700;48.222;16.342;2023-05-10T08:21:55;22.30;93.50
17170;DHT22;8700;48.222;16.342;2023-05-10T08:25:17;22.00;93.40
17170;DHT22;8700;48.222;16.342;2023-05-10T08:28:38;22.20;93.70
17170;DHT22;8700;48.222;16.342;2023-05-10T08:31:59;23.50;91.80
17170;DHT22;8700;48.222;16.342;2023-05-10T08:35:23;24.10;90.00
17170;DHT22;8700;48.222;16.342;2023-05-10T08:38:44;24.00;85.70
17170;DHT22;8700;48.222;16.342;2023-05-10T08:42:06;22.40;90.10
17170;DHT22;8700;48.222;16.342;2023-05-10T08:45:32;21.20;92.10
17170;DHT22;8700;48.222;16.342;2023-05-10T08:48:57;21.60;93.30
17170;DHT22;8700;48.222;16.342;2023-05-10T08:52:24;22.70;91.40
17170;DHT22;8700;48.222;16.342;2023-05-10T08:55:47;23.40;90.20
17170;DHT22;8700;48.222;16.342;2023-05-10T08:59:08;23.70;88.30
17170;DHT22;8700;48.222;16.342;2023-05-10T09:02:31;25.40;83.50
17170;DHT22;8700;48.222;16.342;2023-05-10T09:05:52;25.30;80.70
17170;DHT22;8700;48.222;16.342;2023-05-10T09:09:17;25.10;79.40
17170;DHT22;8700;48.222;16.342;2023-05-10T09:12:38;26.50;76.30
17170;DHT22;8700;48.222;16.342;2023-05-10T09:16:00;24.80;79.80
17170;DHT22;8700;48.222;16.342;2023-05-10T09:19:22;23.00;82.20
17170;DHT22;8700;48.222;16.342;2023-05-10T09:22:43;22.60;85.30
17170;DHT22;8700;48.222;16.342;2023-05-10T09:26:06;21.00;90.40
17170;DHT22;8700;48.222;16.342;2023-05-10T09:29:39;21.80;89.70
17170;DHT22;8700;48.222;16.342;2023-05-10T09:33:01;23.00;85.80
17170;DHT22;8700;48.222;16.342;2023-05-10T09:36:22;23.30;83.60
17170;DHT22;8700;48.222;16.342;2023-05-10T09:39:44;22.50;84.70
17170;DHT22;8700;48.222;16.342;2023-05-10T09:43:08;23.90;80.90
17170;DHT22;8700;48.222;16.342;2023-05-10T09:46:35;23.90;79.90
17170;DHT22;8700;48.222;16.342;2023-05-10T09:49:57;22.50;83.50
17170;DHT22;8700;48.222;16.342;2023-05-10T09:53:23;23.50;82.20
17170;DHT22;8700;48.222;16.342;2023-05-10T09:56:44;24.00;79.30
17170;DHT22;8700;48.222;16.342;2023-05-10T10:00:08;24.10;78.90
17170;DHT22;8700;48.222;16.342;2023-05-10T10:03:30;25.30;77.50
17170;DHT22;8700;48.222;16.342;2023-05-10T10:07:02;25.10;73.50
17170;DHT22;8700;48.222;16.342;2023-05-10T10:10:24;24.50;75.50
17170;DHT22;8700;48.222;16.342;2023-05-10T10:13:45;23.60;77.60
17170;DHT22;8700;48.222;16.342;2023-05-10T10:17:09;24.80;76.20
17170;DHT22;8700;48.222;16.342;2023-05-10T10:20:30;25.20;71.20
17170;DHT22;8700;48.222;16.342;2023-05-10T10:23:52;25.10;72.20
17170;DHT22;8700;48.222;16.342;2023-05-10T10:27:21;25.70;70.70
17170;DHT22;8700;48.222;16.342;2023-05-10T10:30:47;24.80;72.00
17170;DHT22;8700;48.222;16.342;2023-05-10T10:34:21;25.30;72.30
17170;DHT22;8700;48.222;16.342;2023-05-10T10:37:44;26.60;67.80
17170;DHT22;8700;48.222;16.342;2023-05-10T10:41:11;25.50;69.10
17170;DHT22;8700;48.222;16.342;2023-05-10T10:44:47;26.80;67.90
17170;DHT22;8700;48.222;16.342;2023-05-10T10:48:22;25.30;68.70
17170;DHT22;8700;48.222;16.342;2023-05-10T10:52:15;26.40;67.20
17170;DHT22;8700;48.222;16.342;2023-05-10T10:55:48;25.70;69.20
17170;DHT22;8700;48.222;16.342;2023-05-10T10:59:09;25.20;68.40
17170;DHT22;8700;48.222;16.342;2023-05-10T11:02:34;24.80;69.40
17170;DHT22;8700;48.222;16.342;2023-05-10T11:06:04;24.10;70.50
17170;DHT22;8700;48.222;16.342;2023-05-10T11:09:26;23.90;70.90
17170;DHT22;8700;48.222;16.342;2023-05-10T11:12:52;24.20;70.80
17170;DHT22;8700;48.222;16.342;2023-05-10T11:16:17;23.30;73.10
17170;DHT22;8700;48.222;16.342;2023-05-10T11:20:03;24.00;71.90
17170;DHT22;8700;48.222;16.342;2023-05-10T11:23:31;23.00;74.10
17170;DHT22;8700;48.222;16.342;2023-05-10T11:26:56;23.20;74.00
17170;DHT22;8700;48.222;16.342;2023-05-10T11:30:18;23.50;72.70
17170;DHT22;8700;48.222;16.342;2023-05-10T11:33:43;23.70;73.40
17170;DHT22;8700;48.222;16.342;2023-05-10T11:37:05;23.20;72.80
17170;DHT22;8700;48.222;16.342;2023-05-10T11:40:26;22.50;75.90
17170;DHT22;8700;48.222;16.342;2023-05-10T11:43:53;22.30;75.30
17170;DHT22;8700;48.222;16.342;2023-05-10T11:47:14;22.20;76.50
17170;DHT22;8700;48.222;16.342;2023-05-10T11:50:35;22.60;75.10
17170;DHT22;8700;48.222;16.342;2023-05-10T11:53:57;21.80;77.40
17170;DHT22;8700;48.222;16.342;2023-05-10T11:57:19;21.60;79.30
17170;DHT22;8700;48.222;16.342;2023-05-10T12:00:45;21.80;79.70
17170;DHT22;8700;48.222;16.342;2023-05-10T12:04:07;22.10;76.50
17170;DHT22;8700;48.222;16.342;2023-05-10T12:07:28;21.40;77.40
17170;DHT22;8700;48.222;16.342;2023-05-10T12:10:50;21.40;77.80
17170;DHT22;8700;48.222;16.342;2023-05-10T12:14:12;21.20;80.50
17170;DHT22;8700;48.222;16.342;2023-05-10T12:17:37;21.40;80.40
17170;DHT22;8700;48.222;16.342;2023-05-10T12:21:03;21.70;78.10
17170;DHT22;8700;48.222;16.342;2023-05-10T12:24:25;21.60;77.50
17170;DHT22;8700;48.222;16.342;2023-05-10T12:27:50;21.40;78.50
17170;DHT22;8700;48.222;16.342;2023-05-10T12:31:12;21.70;79.10
17170;DHT22;8700;48.222;16.342;2023-05-10T12:34:35;21.70;78.20
17170;DHT22;8700;48.222;16.342;2023-05-10T12:37:58;21.40;77.30
17170;DHT22;8700;48.222;16.342;2023-05-10T12:41:19;21.40;76.90
17170;DHT22;8700;48.222;16.342;2023-05-10T12:44:41;21.90;76.80
17170;DHT22;8700;48.222;16.342;2023-05-10T12:48:02;21.60;76.50
17170;DHT22;8700;48.222;16.342;2023-05-10T12:51:25;21.70;75.60
17170;DHT22;8700;48.222;16.342;2023-05-10T12:54:46;21.80;77.00
17170;DHT22;8700;48.222;16.342;2023-05-10T12:58:08;22.00;76.90
17170;DHT22;8700;48.222;16.342;2023-05-10T13:01:29;22.50;76.00
17170;DHT22;8700;48.222;16.342;2023-05-10T13:04:50;22.30;76.90
17170;DHT22;8700;48.222;16.342;2023-05-10T13:08:13;22.20;76.80
17170;DHT22;8700;48.222;16.342;2023-05-10T13:11:34;22.50;76.50
17170;DHT22;8700;48.222;16.342;2023-05-10T13:14:56;22.10;78.70
17170;DHT22;8700;48.222;16.342;2023-05-10T13:18:17;22.50;78.90
17170;DHT22;8700;48.222;16.342;2023-05-10T13:21:38;22.90;76.30
17170;DHT22;8700;48.222;16.342;2023-05-10T13:25:02;21.90;77.30
17170;DHT22;8700;48.222;16.342;2023-05-10T13:28:23;21.80;77.90
17170;DHT22;8700;48.222;16.342;2023-05-10T13:31:46;21.80;79.60
17170;DHT22;8700;48.222;16.342;2023-05-10T13:35:08;22.30;78.20
17170;DHT22;8700;48.222;16.342;2023-05-10T13:38:29;22.20;78.50
17170;DHT22;8700;48.222;16.342;2023-05-10T13:41:52;22.20;78.50
17170;DHT22;8700;48.222;16.342;2023-05-10T13:45:13;21.80;78.70
17170;DHT22;8700;48.222;16.342;2023-05-10T13:48:34;20.90;81.50
17170;DHT22;8700;48.222;16.342;2023-05-10T13:51:56;21.40;80.80
17170;DHT22;8700;48.222;16.342;2023-05-10T13:55:18;21.60;81.00
17170;DHT22;8700;48.222;16.342;2023-05-10T13:58:41;21.60;79.20
17170;DHT22;8700;48.222;16.342;2023-05-10T14:02:02;21.20;80.00
17170;DHT22;8700;48.222;16.342;2023-05-10T14:05:24;21.90;78.40
17170;DHT22;8700;48.222;16.342;2023-05-10T14:08:45;21.30;79.00
17170;DHT22;8700;48.222;16.342;2023-05-10T14:12:06;21.90;77.00
17170;DHT22;8700;48.222;16.342;2023-05-10T14:15:29;21.90;76.70
17170;DHT22;8700;48.222;16.342;2023-05-10T14:18:51;22.10;75.70
17170;DHT22;8700;48.222;16.342;2023-05-10T14:22:12;21.90;76.00
17170;DHT22;8700;48.222;16.342;2023-05-10T14:25:34;22.20;75.30
17170;DHT22;8700;48.222;16.342;2023-05-10T14:28:55;22.60;74.30
17170;DHT22;8700;48.222;16.342;2023-05-10T14:32:17;21.50;75.70
17170;DHT22;8700;48.222;16.342;2023-05-10T14:35:39;21.80;74.90
17170;DHT22;8700;48.222;16.342;2023-05-10T14:39:00;22.50;73.00
17170;DHT22;8700;48.222;16.342;2023-05-10T14:42:23;22.60;73.40
17170;DHT22;8700;48.222;16.342;2023-05-10T14:45:44;23.10;71.60
17170;DHT22;8700;48.222;16.342;2023-05-10T14:49:08;22.50;72.60
17170;DHT22;8700;48.222;16.342;2023-05-10T14:52:29;22.60;72.80
17170;DHT22;8700;48.222;16.342;2023-05-10T14:55:51;22.70;72.20
17170;DHT22;8700;48.222;16.342;2023-05-10T14:59:13;22.40;73.20
17170;DHT22;8700;48.222;16.342;2023-05-10T15:02:34;22.20;73.30
17170;DHT22;8700;48.222;16.342;2023-05-10T15:05:56;22.90;71.00
17170;DHT22;8700;48.222;16.342;2023-05-10T15:09:18;23.00;69.50
17170;DHT22;8700;48.222;16.342;2023-05-10T15:12:40;22.50;71.40
17170;DHT22;8700;48.222;16.342;2023-05-10T15:16:01;22.50;72.00
17170;DHT22;8700;48.222;16.342;2023-05-10T15:19:23;22.60;70.80
17170;DHT22;8700;48.222;16.342;2023-05-10T15:22:45;22.80;70.30
17170;DHT22;8700;48.222;16.342;2023-05-10T15:26:07;22.70;71.00
17170;DHT22;8700;48.222;16.342;2023-05-10T15:29:29;22.60;71.70
17170;DHT22;8700;48.222;16.342;2023-05-10T15:32:51;22.90;70.20
17170;DHT22;8700;48.222;16.342;2023-05-10T15:36:12;22.10;70.80
17170;DHT22;8700;48.222;16.342;2023-05-10T15:39:37;22.20;70.40
17170;DHT22;8700;48.222;16.342;2023-05-10T15:42:59;22.00;70.70
17170;DHT22;8700;48.222;16.342;2023-05-10T15:46:20;21.90;71.30
17170;DHT22;8700;48.222;16.342;2023-05-10T15:49:41;21.40;72.50
17170;DHT22;8700;48.222;16.342;2023-05-10T15:53:02;21.40;73.90
17170;DHT22;8700;48.222;16.342;2023-05-10T15:56:25;21.20;75.20
17170;DHT22;8700;48.222;16.342;2023-05-10T15:59:46;21.00;76.50
17170;DHT22;8700;48.222;16.342;2023-05-10T16:03:08;20.70;77.80
17170;DHT22;8700;48.222;16.342;2023-05-10T16:06:29;20.80;78.40
17170;DHT22;8700;48.222;16.342;2023-05-10T16:09:51;20.60;78.70
17170;DHT22;8700;48.222;16.342;2023-05-10T16:13:14;20.90;78.10
17170;DHT22;8700;48.222;16.342;2023-05-10T16:16:35;20.60;77.80
17170;DHT22;8700;48.222;16.342;2023-05-10T16:19:57;20.50;78.50
17170;DHT22;8700;48.222;16.342;2023-05-10T16:23:18;20.60;78.20
17170;DHT22;8700;48.222;16.342;2023-05-10T16:26:40;20.80;77.90
17170;DHT22;8700;48.222;16.342;2023-05-10T16:30:03;20.90;77.80
17170;DHT22;8700;48.222;16.342;2023-05-10T16:33:24;20.40;80.30
17170;DHT22;8700;48.222;16.342;2023-05-10T16:36:45;20.20;81.40
17170;DHT22;8700;48.222;16.342;2023-05-10T16:40:08;20.30;81.90
17170;DHT22;8700;48.222;16.342;2023-05-10T16:43:30;20.40;81.30
17170;DHT22;8700;48.222;16.342;2023-05-10T16:46:53;20.20;81.60
17170;DHT22;8700;48.222;16.342;2023-05-10T16:50:15;20.30;81.70
17170;DHT22;8700;48.222;16.342;2023-05-10T16:53:37;20.50;81.50
17170;DHT22;8700;48.222;16.342;2023-05-10T16:56:58;20.30;81.50
17170;DHT22;8700;48.222;16.342;2023-05-10T17:00:21;20.20;81.10
17170;DHT22;8700;48.222;16.342;2023-05-10T17:03:44;20.10;81.20
17170;DHT22;8700;48.222;16.342;2023-05-10T17:07:05;20.20;81.50
17170;DHT22;8700;48.222;16.342;2023-05-10T17:10:27;20.00;81.80
17170;DHT22;8700;48.222;16.342;2023-05-10T17:13:48;20.10;82.00
17170;DHT22;8700;48.222;16.342;2023-05-10T17:17:11;19.70;83.20
17170;DHT22;8700;48.222;16.342;2023-05-10T17:20:34;19.50;84.20
17170;DHT22;8700;48.222;16.342;2023-05-10T17:23:55;19.40;85.00
17170;DHT22;8700;48.222;16.342;2023-05-10T17:27:17;19.70;85.00
17170;DHT22;8700;48.222;16.342;2023-05-10T17:30:38;19.50;85.70
17170;DHT22;8700;48.222;16.342;2023-05-10T17:34:01;19.70;85.50
17170;DHT22;8700;48.222;16.342;2023-05-10T17:37:25;19.50;86.10
17170;DHT22;8700;48.222;16.342;2023-05-10T17:40:47;19.50;86.50
17170;DHT22;8700;48.222;16.342;2023-05-10T17:44:08;19.50;86.20
17170;DHT22;8700;48.222;16.342;2023-05-10T17:47:30;19.60;86.30
17170;DHT22;8700;48.222;16.342;2023-05-10T17:50:51;19.40;86.90
17170;DHT22;8700;48.222;16.342;2023-05-10T17:54:14;19.40;87.00
17170;DHT22;8700;48.222;16.342;2023-05-10T17:57:35;19.30;87.90
17170;DHT22;8700;48.222;16.342;2023-05-10T18:00:58;19.30;88.20
17170;DHT22;8700;48.222;16.342;2023-05-10T18:04:19;19.60;87.20
17170;DHT22;8700;48.222;16.342;2023-05-10T18:07:41;19.40;87.80
17170;DHT22;8700;48.222;16.342;2023-05-10T18:11:04;19.30;88.10
17170;DHT22;8700;48.222;16.342;2023-05-10T18:14:25;18.90;89.60
17170;DHT22;8700;48.222;16.342;2023-05-10T18:17:48;18.90;90.20
17170;DHT22;8700;48.222;16.342;2023-05-10T18:21:10;18.90;90.00
17170;DHT22;8700;48.222;16.342;2023-05-10T18:24:31;19.00;90.20
17170;DHT22;8700;48.222;16.342;2023-05-10T18:27:55;19.10;90.00
17170;DHT22;8700;48.222;16.342;2023-05-10T18:31:16;19.10;90.00
17170;DHT22;8700;48.222;16.342;2023-05-10T18:34:37;19.30;89.90
17170;DHT22;8700;48.222;16.342;2023-05-10T18:37:59;19.40;89.30
17170;DHT22;8700;48.222;16.342;2023-05-10T18:41:21;19.30;89.80
17170;DHT22;8700;48.222;16.342;2023-05-10T18:44:47;19.40;89.40
17170;DHT22;8700;48.222;16.342;2023-05-10T18:48:08;19.30;90.00
17170;DHT22;8700;48.222;16.342;2023-05-10T18:51:30;19.20;90.20
17170;DHT22;8700;48.222;16.342;2023-05-10T18:54:51;19.30;90.10
17170;DHT22;8700;48.222;16.342;2023-05-10T18:58:13;19.10;90.50
17170;DHT22;8700;48.222;16.342;2023-05-10T19:01:36;19.00;90.90
17170;DHT22;8700;48.222;16.342;2023-05-10T19:04:57;19.20;90.60
17170;DHT22;8700;48.222;16.342;2023-05-10T19:08:19;19.00;90.90
17170;DHT22;8700;48.222;16.342;2023-05-10T19:11:40;18.80;91.40
17170;DHT22;8700;48.222;16.342;2023-05-10T19:15:02;18.90;91.60
17170;DHT22;8700;48.222;16.342;2023-05-10T19:18:25;19.10;91.30
17170;DHT22;8700;48.222;16.342;2023-05-10T19:21:47;19.20;91.30
17170;DHT22;8700;48.222;16.342;2023-05-10T19:25:08;19.10;91.40
17170;DHT22;8700;48.222;16.342;2023-05-10T19:28:30;19.30;91.20
17170;DHT22;8700;48.222;16.342;2023-05-10T19:31:51;19.10;91.40
17170;DHT22;8700;48.222;16.342;2023-05-10T19:35:14;19.00;91.80
17170;DHT22;8700;48.222;16.342;2023-05-10T19:38:36;18.90;92.20
17170;DHT22;8700;48.222;16.342;2023-05-10T19:41:58;18.90;92.30
17170;DHT22;8700;48.222;16.342;2023-05-10T19:45:19;18.90;92.40
17170;DHT22;8700;48.222;16.342;2023-05-10T19:48:41;18.80;92.80
17170;DHT22;8700;48.222;16.342;2023-05-10T19:52:04;18.70;92.60
17170;DHT22;8700;48.222;16.342;2023-05-10T19:55:27;18.50;93.20
17170;DHT22;8700;48.222;16.342;2023-05-10T19:58:48;18.30;93.60
17170;DHT22;8700;48.222;16.342;2023-05-10T20:02:12;18.40;93.70
17170;DHT22;8700;48.222;16.342;2023-05-10T20:05:33;18.40;93.90
17170;DHT22;8700;48.222;16.342;2023-05-10T20:08:56;18.30;94.20
17170;DHT22;8700;48.222;16.342;2023-05-10T20:12:17;18.40;94.40
17170;DHT22;8700;48.222;16.342;2023-05-10T20:15:39;18.40;94.50
17170;DHT22;8700;48.222;16.342;2023-05-10T20:19:02;18.40;94.60
17170;DHT22;8700;48.222;16.342;2023-05-10T20:22:24;18.60;94.50
17170;DHT22;8700;48.222;16.342;2023-05-10T20:25:46;18.80;93.90
17170;DHT22;8700;48.222;16.342;2023-05-10T20:29:08;18.60;94.20
17170;DHT22;8700;48.222;16.342;2023-05-10T20:32:33;18.40;94.60
17170;DHT22;8700;48.222;16.342;2023-05-10T20:35:55;18.10;95.20
17170;DHT22;8700;48.222;16.342;2023-05-10T20:39:16;18.20;95.50
17170;DHT22;8700;48.222;16.342;2023-05-10T20:42:39;18.20;95.70
17170;DHT22;8700;48.222;16.342;2023-05-10T20:46:01;18.30;95.90
17170;DHT22;8700;48.222;16.342;2023-05-10T20:49:24;18.30;96.00
17170;DHT22;8700;48.222;16.342;2023-05-10T20:52:46;18.60;95.70
17170;DHT22;8700;48.222;16.342;2023-05-10T20:56:10;18.50;96.00
17170;DHT22;8700;48.222;16.342;2023-05-10T20:59:32;18.20;96.60
17170;DHT22;8700;48.222;16.342;2023-05-10T21:02:54;18.20;96.90
17170;DHT22;8700;48.222;16.342;2023-05-10T21:06:15;18.30;96.90
17170;DHT22;8700;48.222;16.342;2023-05-10T21:09:37;18.50;96.50
17170;DHT22;8700;48.222;16.342;2023-05-10T21:12:58;18.40;96.80
17170;DHT22;8700;48.222;16.342;2023-05-10T21:16:21;18.30;96.80
17170;DHT22;8700;48.222;16.342;2023-05-10T21:19:43;18.20;96.90
17170;DHT22;8700;48.222;16.342;2023-05-10T21:23:04;18.30;96.80
17170;DHT22;8700;48.222;16.342;2023-05-10T21:26:26;18.40;96.70